Time;durP1;ratioP1;P1;durP2;ratioP2;P2;SDS_P1;SDS_P2;PMS_P1;PMS_P2;Temp;Humidity;BMP_temperature;BMP_pressure;BME280_temperature;BME280_humidity;BME280_pressure;Samples;Min_cycle;Max_cycle;Signal;HPM_P1;HPM_P2
2023/04/20 00:02:15;;;;;;;7.47;4.13;;;7.30;99.90;;;6.45;76.00;101484.88;5094433;28;20195;-74
2023/04/20 00:04:47;;;;;;;7.10;4.80;;;7.20;99.90;;;6.30;76.52;101480.69;5094562;28;20265;-75
2023/04/20 00:07:18;;;;;;;7.00;4.90;;;7.10;99.90;;;6.33;76.70;101480.50;5094441;28;20192;-75
2023/04/20 00:09:50;;;;;;;9.80;4.60;;;7.10;99.90;;;6.43;76.82;101476.19;5094498;28;20201;-75
2023/04/20 00:12:22;;;;;;;7.40;4.17;;;7.10;99.90;;;6.28;76.57;101479.13;5094437;28;20200;-75
2023/04/20 00:14:55;;;;;;;7.40;4.63;;;7.00;99.90;;;6.17;75.94;101469.28;5094344;28;20209;-75
2023/04/20 00:17:27;;;;;;;8.67;4.70;;;7.00;99.90;;;6.27;76.02;101470.28;5094263;28;20228;-74
2023/04/20 00:19:59;;;;;;;9.93;4.57;;;7.10;99.90;;;6.24;76.43;101470.53;5093624;28;20283;-74
2023/04/20 00:22:31;;;;;;;10.40;5.20;;;7.00;99.90;;;6.20;75.88;101461.06;5094317;28;20192;-74
2023/04/20 00:25:03;;;;;;;8.90;4.20;;;7.00;99.90;;;6.11;76.61;101465.28;5094682;28;20208;-74
2023/04/20 00:27:35;;;;;;;6.80;4.87;;;6.90;99.90;;;6.14;76.58;101456.22;5094148;28;20224;-74
2023/04/20 00:30:10;;;;;;;9.47;4.60;;;6.90;99.90;;;6.15;76.27;101465.91;5094280;28;20193;-74
2023/04/20 00:32:41;;;;;;;9.50;5.10;;;7.00;99.90;;;6.21;76.01;101460.13;5094118;28;20191;-74
2023/04/20 00:35:14;;;;;;;7.77;5.07;;;7.00;99.90;;;6.24;76.27;101462.56;5093680;28;20216;-74
2023/04/20 00:37:45;;;;;;;7.30;5.00;;;7.00;99.90;;;6.21;76.16;101465.44;5093970;28;20228;-74
2023/04/20 00:40:17;;;;;;;9.20;5.10;;;7.00;99.90;;;6.32;75.84;101454.84;5093982;28;20193;-74
2023/04/20 00:42:49;;;;;;;9.23;5.17;;;7.00;99.90;;;6.16;76.34;101451.66;5093940;28;20215;-75
2023/04/20 00:45:22;;;;;;;10.60;5.03;;;7.00;99.90;;;6.18;76.61;101455.03;5093952;28;20586;-74
2023/04/20 00:47:55;;;;;;;9.60;4.77;;;6.90;99.90;;;6.15;76.70;101452.63;5093784;28;20229;-74
2023/04/20 00:50:27;;;;;;;11.73;5.87;;;6.90;99.90;;;6.27;76.60;101453.53;5093585;28;20633;-74
2023/04/20 00:53:00;;;;;;;7.57;5.10;;;7.00;99.90;;;6.20;76.66;101446.97;5093812;28;20200;-74
2023/04/20 00:55:32;;;;;;;10.50;5.50;;;6.90;99.90;;;6.11;77.05;101449.34;5093708;28;20209;-74
2023/04/20 00:58:04;;;;;;;7.90;4.60;;;6.90;99.90;;;6.09;77.08;101455.75;5093320;28;20638;-75
2023/04/20 01:00:38;;;;;;;10.17;5.30;;;6.90;99.90;;;6.19;77.20;101451.44;5093394;28;20555;-75
2023/04/20 01:03:10;;;;;;;8.93;5.30;;;6.90;99.90;;;6.15;77.42;101439.31;5093733;28;20196;-74
2023/04/20 01:05:42;;;;;;;9.50;5.23;;;6.90;99.90;;;6.11;77.13;101432.53;5093708;28;20185;-74
2023/04/20 01:08:14;;;;;;;8.50;5.13;;;6.80;99.90;;;6.04;77.38;101432.16;5093586;28;20229;-74
2023/04/20 01:10:47;;;;;;;8.13;4.63;;;6.90;99.90;;;6.05;77.62;101422.38;5093614;28;20201;-74
2023/04/20 01:13:19;;;;;;;7.87;5.00;;;6.80;99.90;;;6.06;77.28;101416.91;5093577;28;20196;-74
2023/04/20 01:15:53;;;;;;;7.83;4.40;;;6.80;99.90;;;6.16;76.72;101413.59;5093895;28;20209;-74
2023/04/20 01:18:25;;;;;;;10.33;4.77;;;6.90;99.90;;;6.19;77.58;101421.34;5093811;28;20224;-74
2023/04/20 01:20:57;;;;;;;9.00;4.73;;;6.90;99.90;;;6.20;77.10;101415.88;5094326;28;20193;-76
2023/04/20 01:23:34;;;;;;;9.73;5.07;;;6.90;99.90;;;6.20;77.55;101413.22;5093746;28;20193;-73
2023/04/20 01:26:09;;;;;;;7.90;4.60;;;6.90;99.90;;;6.13;77.35;101409.31;5093831;28;20189;-72
2023/04/20 01:28:42;;;;;;;9.90;6.10;;;6.90;99.90;;;6.06;77.84;101398.31;5093795;28;20598;-74
2023/04/20 01:31:15;;;;;;;9.20;5.57;;;6.90;99.90;;;6.15;77.78;101396.78;5096299;28;20287;-73
2023/04/20 01:33:47;;;;;;;8.13;4.93;;;6.90;99.90;;;6.13;77.35;101392.56;5097538;28;20210;-73
2023/04/20 01:36:19;;;;;;;9.40;5.17;;;6.90;99.90;;;6.18;77.12;101393.91;5098035;28;20193;-73
2023/04/20 01:38:52;;;;;;;7.87;5.23;;;7.00;99.90;;;6.04;77.70;101386.09;5097385;28;20630;-74
2023/04/20 01:41:24;;;;;;;8.70;5.57;;;6.90;99.90;;;6.00;77.36;101381.97;5097403;28;20185;-74
2023/04/20 01:43:56;;;;;;;10.63;5.60;;;6.80;99.90;;;6.04;77.86;101378.13;5097028;28;20662;-74
2023/04/20 01:46:28;;;;;;;7.97;5.23;;;6.80;99.90;;;5.95;78.15;101373.53;5097260;28;20200;-74
2023/04/20 01:49:00;;;;;;;11.07;5.33;;;6.80;99.90;;;5.99;78.16;101367.84;5097237;28;20229;-74
2023/04/20 01:51:32;;;;;;;10.50;5.43;;;6.80;99.90;;;5.91;78.38;101372.06;5097205;28;20196;-74
2023/04/20 01:54:05;;;;;;;8.90;5.33;;;6.70;99.90;;;5.90;78.61;101373.00;5096740;28;20634;-74
2023/04/20 01:56:37;;;;;;;10.03;5.40;;;6.70;99.90;;;5.91;79.13;101377.38;5097072;28;20189;-74
2023/04/20 01:59:09;;;;;;;11.03;5.47;;;6.60;99.90;;;5.79;79.39;101367.63;5096847;28;20233;-74
2023/04/20 02:01:41;;;;;;;8.40;5.83;;;6.60;99.90;;;5.86;79.65;101366.22;5097035;28;20189;-74
2023/04/20 02:04:13;;;;;;;8.77;5.50;;;6.60;99.90;;;5.92;79.24;101376.41;5096970;28;20185;-74
2023/04/20 02:06:45;;;;;;;7.90;5.33;;;6.60;99.90;;;5.87;78.98;101373.22;5096598;28;20668;-74
2023/04/20 02:09:19;;;;;;;9.77;5.57;;;6.70;99.90;;;5.75;79.51;101367.00;5096454;28;20252;-74
2023/04/20 02:11:53;;;;;;;10.43;5.50;;;6.60;99.90;;;5.80;79.57;101369.31;5096757;28;20196;-74
2023/04/20 02:14:25;;;;;;;8.57;5.80;;;6.60;99.90;;;5.83;79.35;101369.06;5096350;28;20192;-74
2023/04/20 02:16:58;;;;;;;7.57;5.33;;;6.60;99.90;;;5.80;79.47;101359.53;5096730;28;20189;-74
2023/04/20 02:19:29;;;;;;;11.57;5.90;;;6.60;99.90;;;5.85;79.46;101359.19;5096668;28;20283;-74
2023/04/20 02:22:01;;;;;;;11.57;6.20;;;6.70;99.90;;;5.79;79.55;101357.81;5096705;28;20189;-74
2023/04/20 02:24:34;;;;;;;9.47;6.07;;;6.60;99.90;;;5.85;79.37;101351.22;5096572;28;20239;-74
2023/04/20 02:27:06;;;;;;;13.63;6.67;;;6.60;99.90;;;5.85;79.47;101353.88;5096484;28;20200;-74
2023/04/20 02:29:38;;;;;;;11.03;6.30;;;6.60;99.90;;;5.87;79.59;101362.59;5096528;28;20190;-74
2023/04/20 02:32:11;;;;;;;11.47;6.03;;;6.60;99.90;;;5.91;79.36;101361.41;5096073;28;20672;-74
2023/04/20 02:34:43;;;;;;;11.07;6.37;;;6.70;99.90;;;5.94;79.45;101358.53;5096060;28;20641;-74
2023/04/20 02:37:15;;;;;;;10.90;6.07;;;6.70;99.90;;;5.96;79.52;101362.75;5096247;28;20242;-74
2023/04/20 02:39:47;;;;;;;10.13;5.50;;;6.70;99.90;;;5.80;79.71;101361.34;5096271;28;20189;-74
2023/04/20 02:42:19;;;;;;;10.80;6.53;;;6.60;99.90;;;5.87;79.70;101359.94;5095162;28;20539;-74
2023/04/20 02:44:52;;;;;;;12.23;6.30;;;6.60;99.90;;;5.85;79.71;101359.19;5096187;28;20185;-74
2023/04/20 02:47:24;;;;;;;11.17;6.27;;;6.60;99.90;;;5.89;79.71;101358.03;5095729;28;20604;-74
2023/04/20 02:49:55;;;;;;;12.10;6.40;;;6.60;99.90;;;5.84;79.80;101360.16;5096101;28;20208;-74
2023/04/20 02:52:27;;;;;;;11.73;6.37;;;6.60;99.90;;;5.87;79.57;101351.97;5096004;28;20193;-74
2023/04/20 02:55:01;;;;;;;10.33;5.43;;;6.60;99.90;;;5.76;80.13;101349.22;5095908;28;20209;-74
2023/04/20 02:57:32;;;;;;;10.53;6.20;;;6.60;99.90;;;5.82;79.99;101354.94;5095855;28;20315;-74
2023/04/20 03:00:07;;;;;;;9.37;6.03;;;6.60;99.90;;;5.94;79.49;101356.72;5095469;28;20581;-74
2023/04/20 03:02:38;;;;;;;11.67;6.07;;;6.70;99.90;;;5.91;80.02;101356.09;5095829;28;20192;-74
2023/04/20 03:05:12;;;;;;;11.73;6.33;;;6.70;99.90;;;5.86;79.37;101353.78;5095447;28;20211;-75
2023/04/20 03:07:44;;;;;;;10.03;6.30;;;6.60;99.90;;;5.88;79.04;101353.69;5095700;28;20229;-75
2023/04/20 03:10:17;;;;;;;9.00;6.33;;;6.70;99.90;;;5.74;79.43;101349.38;5095705;28;20201;-75
2023/04/20 03:12:49;;;;;;;10.27;6.17;;;6.50;99.90;;;5.72;79.52;101345.13;5095718;28;20200;-74
2023/04/20 03:15:21;;;;;;;9.87;6.43;;;6.50;99.90;;;5.77;80.04;101350.94;5095210;28;20216;-74
2023/04/20 03:17:53;;;;;;;10.83;7.00;;;6.50;99.90;;;5.79;79.97;101362.31;5095476;28;20225;-74
2023/04/20 03:20:25;;;;;;;10.63;6.10;;;6.50;99.90;;;5.84;79.53;101361.00;5095544;28;20189;-74
2023/04/20 03:22:57;;;;;;;12.90;6.47;;;6.60;99.90;;;5.77;79.58;101353.59;5095498;28;20204;-74
2023/04/20 03:25:30;;;;;;;11.17;5.80;;;6.60;99.90;;;5.72;79.68;101356.59;5095110;28;20548;-74
2023/04/20 03:28:02;;;;;;;11.40;6.67;;;6.50;99.90;;;5.67;79.68;101353.44;5095304;28;20227;-74
2023/04/20 03:30:34;;;;;;;8.20;5.70;;;6.50;99.90;;;5.68;79.86;101354.28;5095297;28;20185;-74
2023/04/20 03:33:07;;;;;;;11.33;6.70;;;6.50;99.90;;;5.72;79.80;101353.09;5094923;28;20193;-74
2023/04/20 03:35:39;;;;;;;10.37;6.20;;;6.50;99.90;;;5.86;78.68;101352.94;5095075;28;20252;-74
2023/04/20 03:38:11;;;;;;;11.10;6.40;;;6.60;99.90;;;5.76;78.75;101350.09;5095087;28;20298;-74
2023/04/20 03:40:44;;;;;;;13.33;7.07;;;6.50;99.90;;;5.73;79.35;101352.97;5095085;28;20194;-74
2023/04/20 03:43:16;;;;;;;10.50;6.40;;;6.50;99.90;;;5.77;79.10;101358.91;5094761;28;20679;-74
2023/04/20 03:45:48;;;;;;;10.00;6.63;;;6.60;99.90;;;5.75;79.82;101355.53;5095014;28;20192;-74
2023/04/20 03:48:20;;;;;;;14.50;7.37;;;6.60;99.90;;;5.82;79.62;101356.78;5094894;28;20224;-74
2023/04/20 03:50:52;;;;;;;9.43;6.80;;;6.60;99.90;;;5.78;79.95;101352.66;5094921;28;20210;-74
2023/04/20 03:53:24;;;;;;;10.37;7.00;;;6.50;99.90;;;5.71;80.64;101352.25;5093996;28;20193;-74
2023/04/20 03:55:57;;;;;;;12.33;6.70;;;6.50;99.90;;;5.73;80.56;101349.47;5094357;28;20213;-74
2023/04/20 03:58:29;;;;;;;11.90;7.30;;;6.60;99.90;;;5.77;80.63;101350.94;5094451;28;20239;-74
2023/04/20 04:01:05;;;;;;;11.40;6.97;;;6.50;99.90;;;5.67;80.77;101352.59;5094666;28;20209;-74
2023/04/20 04:03:38;;;;;;;12.10;7.67;;;6.50;99.90;;;5.71;81.09;101349.59;5094394;28;20704;-74
2023/04/20 04:06:11;;;;;;;13.93;7.73;;;6.50;99.90;;;5.71;81.13;101351.41;5094578;28;20185;-74
2023/04/20 04:08:42;;;;;;;9.57;6.80;;;6.50;99.90;;;5.69;81.06;101351.50;5094450;28;20240;-74
2023/04/20 04:11:15;;;;;;;10.83;7.20;;;6.50;99.90;;;5.66;81.58;101351.75;5094513;28;20193;-74
2023/04/20 04:13:47;;;;;;;13.47;7.53;;;6.50;99.90;;;5.73;80.77;101347.66;5094474;28;20193;-74
2023/04/20 04:16:19;;;;;;;13.20;7.80;;;6.50;99.90;;;5.76;81.17;101346.56;5094742;28;20208;-74
2023/04/20 04:18:51;;;;;;;11.03;7.13;;;6.60;99.90;;;5.77;81.21;101358.91;5094308;28;20235;-74
2023/04/20 04:21:23;;;;;;;10.57;6.87;;;6.60;99.90;;;5.78;81.23;101355.31;5094569;28;20204;-74
2023/04/20 04:23:55;;;;;;;11.50;7.33;;;6.50;99.90;;;5.77;81.50;101348.28;5094286;28;20197;-74
2023/04/20 04:26:30;;;;;;;13.73;7.53;;;6.60;99.90;;;5.72;81.75;101353.94;5094220;28;20185;-74
2023/04/20 04:29:05;;;;;;;14.53;7.93;;;6.50;99.90;;;5.76;81.54;101354.56;5094382;28;20257;-74
2023/04/20 04:31:37;;;;;;;12.30;7.13;;;6.50;99.90;;;5.74;81.07;101353.84;5094163;28;20201;-74
2023/04/20 04:34:09;;;;;;;10.80;7.40;;;6.50;99.90;;;5.76;81.48;101362.53;5094024;28;20189;-74
2023/04/20 04:36:42;;;;;;;12.27;7.77;;;6.60;99.90;;;5.70;81.85;101357.66;5093219;28;20230;-74
2023/04/20 04:39:15;;;;;;;13.23;8.27;;;6.50;99.90;;;5.70;81.86;101352.34;5093353;28;20228;-74
2023/04/20 04:41:49;;;;;;;13.63;7.60;;;6.50;99.90;;;5.71;81.63;101343.44;5093738;28;20645;-73
2023/04/20 04:44:21;;;;;;;14.30;8.37;;;6.50;99.90;;;5.76;81.87;101343.91;5093923;28;20192;-73
2023/04/20 04:46:53;;;;;;;12.40;7.10;;;6.60;99.90;;;5.80;81.65;101350.72;5093911;28;20193;-73
2023/04/20 04:49:25;;;;;;;13.80;7.97;;;6.60;99.90;;;5.79;81.62;101351.69;5093800;28;20224;-73
2023/04/20 04:51:57;;;;;;;14.23;7.77;;;6.60;99.90;;;5.83;81.34;101350.47;5093843;28;20200;-73
2023/04/20 04:54:29;;;;;;;14.50;8.30;;;6.60;99.90;;;5.84;81.31;101358.34;5093767;28;20193;-74
2023/04/20 04:57:02;;;;;;;10.60;7.67;;;6.60;99.90;;;5.85;81.29;101361.84;5093750;28;20235;-74
2023/04/20 04:59:34;;;;;;;12.20;8.03;;;6.60;99.90;;;5.85;81.53;101359.19;5093454;28;20208;-74
2023/04/20 05:02:05;;;;;;;11.40;7.80;;;6.60;99.90;;;5.82;81.67;101362.09;5093763;28;20192;-74
2023/04/20 05:04:38;;;;;;;11.47;7.47;;;6.60;99.90;;;5.84;81.59;101366.31;5093267;28;20189;-74
2023/04/20 05:07:10;;;;;;;12.67;7.77;;;6.60;99.90;;;5.84;81.86;101371.63;5093211;28;20591;-74
2023/04/20 05:09:42;;;;;;;12.10;7.70;;;6.60;99.90;;;5.75;82.35;101366.16;5093651;28;20192;-74
2023/04/20 05:12:15;;;;;;;11.70;7.83;;;6.60;99.90;;;5.76;82.04;101373.16;5093564;28;20219;-74
2023/04/20 05:14:47;;;;;;;11.70;7.43;;;6.60;99.90;;;5.77;82.47;101374.84;5093565;28;20185;-74
2023/04/20 05:17:19;;;;;;;11.27;7.63;;;6.60;99.90;;;5.80;81.46;101378.13;5093472;28;20220;-74
2023/04/20 05:19:51;;;;;;;12.30;7.50;;;6.60;99.90;;;5.79;82.30;101373.78;5093554;28;20265;-74
2023/04/20 05:22:23;;;;;;;9.83;6.93;;;6.60;99.90;;;5.80;82.01;101369.31;5093233;28;20657;-74
2023/04/20 05:24:54;;;;;;;14.87;7.97;;;6.60;99.90;;;5.77;82.51;101381.03;5093735;28;20200;-74
2023/04/20 05:27:28;;;;;;;10.20;7.17;;;6.60;99.90;;;5.82;81.92;101378.03;5093679;28;20232;-74
2023/04/20 05:30:00;;;;;;;11.20;7.97;;;6.60;99.90;;;5.83;82.17;101380.56;5093149;28;20189;-74
2023/04/20 05:32:50;;;;;;;13.33;8.40;;;6.60;99.90;;;5.86;82.26;101382.16;5093237;28;20189;-74
2023/04/20 05:35:24;;;;;;;10.13;7.23;;;6.60;99.90;;;5.85;81.81;101377.81;5093486;28;20196;-74
2023/04/20 05:37:59;;;;;;;12.10;8.13;;;6.70;99.90;;;5.86;82.26;101383.00;5092977;28;20700;-74
2023/04/20 05:40:31;;;;;;;10.10;7.63;;;6.60;99.90;;;5.88;81.99;101389.09;5093380;28;20234;-74
2023/04/20 05:43:04;;;;;;;15.10;8.37;;;6.70;99.90;;;5.85;82.20;101394.59;5093576;28;20200;-74
2023/04/20 05:45:36;;;;;;;10.87;7.67;;;6.60;99.90;;;5.91;82.20;101403.94;5093394;28;20196;-74
2023/04/20 05:48:07;;;;;;;12.87;8.20;;;6.70;99.90;;;5.93;82.31;101402.84;5093205;28;20231;-74
2023/04/20 05:50:39;;;;;;;12.17;8.27;;;6.70;99.90;;;5.95;82.00;101406.25;5093242;28;20211;-74
2023/04/20 05:53:11;;;;;;;13.80;8.00;;;6.80;99.90;;;5.99;81.75;101402.38;5092937;28;20672;-74
2023/04/20 05:55:43;;;;;;;12.00;8.10;;;6.80;99.90;;;5.93;81.95;101392.22;5093156;28;20193;-74
2023/04/20 05:58:16;;;;;;;11.67;7.50;;;6.70;99.90;;;6.02;81.06;101393.38;5092887;28;20231;-74
2023/04/20 06:00:48;;;;;;;9.63;7.27;;;6.80;99.90;;;6.04;81.09;101389.63;5093462;28;20197;-74
2023/04/20 06:03:20;;;;;;;11.00;8.07;;;6.80;99.90;;;6.04;82.02;101386.97;5093135;28;20200;-74
2023/04/20 06:05:52;;;;;;;12.80;8.67;;;6.80;99.90;;;6.03;81.44;101397.69;5093086;28;20262;-74
2023/04/20 06:08:24;;;;;;;12.10;8.53;;;6.80;99.90;;;6.08;81.86;101392.91;5093060;28;20221;-74
2023/04/20 06:10:58;;;;;;;10.83;7.80;;;6.90;99.90;;;6.15;81.30;101391.47;5093063;28;20193;-74
2023/04/20 06:13:31;;;;;;;11.20;8.57;;;6.90;99.90;;;6.18;81.32;101388.56;5093273;28;20228;-74
2023/04/20 06:16:03;;;;;;;15.27;8.80;;;7.00;99.90;;;6.23;81.75;101388.25;5092695;28;20200;-74
2023/04/20 06:18:35;;;;;;;11.87;8.20;;;7.00;99.90;;;6.22;81.71;101391.84;5095171;28;20224;-74
2023/04/20 06:21:09;;;;;;;10.73;8.97;;;7.00;99.90;;;6.30;81.59;101386.81;5096325;28;20197;-74
2023/04/20 06:23:41;;;;;;;13.90;8.70;;;7.10;99.90;;;6.33;81.25;101390.06;5096261;28;20646;-74
2023/04/20 06:26:13;;;;;;;13.77;9.07;;;7.10;99.90;;;6.33;80.83;101391.88;5096489;28;20189;-74
2023/04/20 06:28:47;;;;;;;12.37;8.70;;;7.10;99.90;;;6.36;80.91;101387.19;5096342;28;20592;-74
2023/04/20 06:31:19;;;;;;;13.07;8.77;;;7.20;99.90;;;6.35;81.24;101393.44;5096427;28;20193;-74
2023/04/20 06:33:51;;;;;;;11.17;8.97;;;7.10;99.90;;;6.44;81.54;101398.06;5096387;28;20189;-74
2023/04/20 06:36:22;;;;;;;13.40;9.30;;;7.20;99.90;;;6.45;81.00;101393.59;5096345;28;20196;-74
2023/04/20 06:38:55;;;;;;;12.77;8.57;;;7.30;99.90;;;6.50;80.55;101397.59;5096203;28;20231;-74
2023/04/20 06:41:26;;;;;;;10.80;8.57;;;7.30;99.90;;;6.53;80.14;101402.69;5096785;28;20185;-74
2023/04/20 06:43:59;;;;;;;9.97;8.20;;;7.30;99.90;;;6.53;80.32;101397.38;5096181;28;20189;-74
2023/04/20 06:46:31;;;;;;;9.40;8.20;;;7.30;99.90;;;6.52;79.48;101395.66;5096135;28;20189;-74
2023/04/20 06:49:03;;;;;;;10.70;8.70;;;7.30;99.90;;;6.47;79.79;101397.81;5095699;28;20273;-74
2023/04/20 06:51:36;;;;;;;10.13;8.07;;;7.20;99.90;;;6.47;79.80;101403.13;5096233;28;20210;-74
2023/04/20 06:54:10;;;;;;;14.90;9.17;;;7.20;99.90;;;6.46;79.84;101401.47;5095697;28;20664;-74
2023/04/20 06:56:42;;;;;;;10.57;8.67;;;7.30;99.90;;;6.48;79.98;101406.66;5095888;28;20192;-74
2023/04/20 06:59:17;;;;;;;14.23;9.23;;;7.30;99.90;;;6.48;79.94;101407.50;5095623;28;20736;-74
2023/04/20 07:01:49;;;;;;;13.07;9.27;;;7.30;99.90;;;6.41;80.22;101403.63;5095580;28;20188;-74
2023/04/20 07:04:21;;;;;;;13.40;8.93;;;7.30;99.90;;;6.45;80.39;101402.44;5095800;28;20211;-74
2023/04/20 07:06:52;;;;;;;12.70;9.33;;;7.20;99.90;;;6.49;80.16;101411.88;5095993;28;20192;-74
2023/04/20 07:09:25;;;;;;;13.40;8.93;;;7.30;99.90;;;6.51;80.26;101412.59;5095592;28;20320;-74
2023/04/20 07:11:57;;;;;;;13.20;9.30;;;7.30;99.90;;;6.58;79.74;101411.16;5095895;28;20240;-74
2023/04/20 07:14:31;;;;;;;15.13;9.57;;;7.30;99.90;;;6.65;79.84;101406.19;5095272;28;20563;-74
2023/04/20 07:17:03;;;;;;;11.30;8.47;;;7.40;99.90;;;6.70;78.82;101404.03;5095447;28;20189;-74
2023/04/20 07:19:34;;;;;;;13.93;9.30;;;7.50;99.90;;;6.77;79.34;101404.41;5095476;28;20189;-74
2023/04/20 07:22:06;;;;;;;12.20;9.23;;;7.50;99.90;;;6.77;78.66;101409.72;5095197;28;20706;-74
2023/04/20 07:24:38;;;;;;;13.40;9.17;;;7.60;99.90;;;6.76;77.57;101405.38;5095159;28;20189;-74
2023/04/20 07:27:10;;;;;;;11.33;8.97;;;7.60;99.90;;;6.76;77.37;101408.88;5095309;28;20192;-74
2023/04/20 07:29:43;;;;;;;11.77;8.93;;;7.50;99.90;;;6.78;78.38;101411.44;5094808;28;20655;-74
2023/04/20 07:32:15;;;;;;;12.43;9.20;;;7.50;99.90;;;6.81;77.79;101416.50;5094923;28;20598;-74
2023/04/20 07:34:47;;;;;;;11.90;9.37;;;7.60;99.90;;;6.88;77.55;101409.75;5095245;28;20200;-74
2023/04/20 07:37:19;;;;;;;12.70;9.23;;;7.60;99.90;;;6.95;77.62;101418.94;5095040;28;20196;-74
2023/04/20 07:39:51;;;;;;;13.33;9.63;;;7.70;99.90;;;6.98;77.55;101418.69;5094773;28;20656;-74
2023/04/20 07:42:23;;;;;;;12.90;9.43;;;7.80;99.90;;;7.02;77.21;101420.16;5095145;28;20193;-73
2023/04/20 07:44:56;;;;;;;13.07;8.83;;;7.80;99.90;;;7.03;76.58;101427.16;5095023;28;20208;-73
2023/04/20 07:47:28;;;;;;;11.87;9.10;;;7.80;99.90;;;7.05;76.70;101419.91;5095110;28;20224;-73
2023/04/20 07:50:00;;;;;;;14.83;9.10;;;7.90;99.90;;;7.05;75.85;101428.72;5094926;28;20204;-73
2023/04/20 07:52:32;;;;;;;12.17;9.20;;;7.80;99.90;;;7.12;75.81;101421.13;5094656;28;20672;-75
2023/04/20 07:55:04;;;;;;;11.97;8.60;;;7.90;99.90;;;7.17;75.32;101426.06;5094930;28;20192;-74
2023/04/20 07:57:36;;;;;;;10.43;8.83;;;7.90;99.90;;;7.22;74.78;101423.91;5094867;28;20715;-74
2023/04/20 08:00:13;;;;;;;14.97;9.37;;;8.00;99.90;;;7.29;75.03;101428.63;5094556;28;20223;-74
2023/04/20 08:02:46;;;;;;;11.80;8.53;;;8.00;99.90;;;7.33;75.04;101429.22;5094698;28;20193;-74
2023/04/20 08:05:18;;;;;;;11.47;8.97;;;8.10;99.90;;;7.37;74.22;101426.16;5094703;28;20189;-74
2023/04/20 08:07:50;;;;;;;10.13;8.10;;;8.10;99.90;;;7.41;72.53;101434.75;5094524;28;20231;-74
2023/04/20 08:10:22;;;;;;;11.67;8.07;;;8.20;99.70;;;7.49;72.80;101430.53;5094222;28;20204;-74
2023/04/20 08:12:53;;;;;;;10.30;8.00;;;8.20;99.60;;;7.59;74.38;101431.47;5094296;28;20634;-74
2023/04/20 08:15:26;;;;;;;10.23;7.70;;;8.40;99.90;;;7.65;72.48;101444.31;5094436;28;20189;-74
2023/04/20 08:17:58;;;;;;;9.07;7.60;;;8.40;99.40;;;7.69;71.45;101446.72;5093968;28;20290;-74
2023/04/20 08:20:30;;;;;;;8.67;7.40;;;8.50;99.00;;;7.67;71.33;101432.69;5094608;28;20212;-74
2023/04/20 08:23:09;;;;;;;9.30;7.43;;;8.40;98.80;;;7.65;70.87;101435.44;5094316;28;20196;-74
2023/04/20 08:25:42;;;;;;;10.17;7.87;;;8.40;98.60;;;7.65;70.08;101438.97;5094810;28;20200;-74
2023/04/20 08:28:15;;;;;;;8.77;7.50;;;8.40;98.40;;;7.71;70.21;101437.59;5094123;28;20224;-74
2023/04/20 08:31:05;;;;;;;10.37;7.57;;;8.50;98.40;;;7.76;69.70;101442.56;5093815;28;20560;-74
2023/04/20 08:33:37;;;;;;;9.93;7.73;;;8.50;98.10;;;7.76;69.74;101442.56;5094210;28;20203;-74
2023/04/20 08:36:09;;;;;;;11.17;8.27;;;8.50;98.10;;;7.73;69.62;101443.69;5094097;28;20185;-74
2023/04/20 08:38:41;;;;;;;9.40;7.97;;;8.50;98.10;;;7.72;69.89;101451.78;5093808;28;20233;-74
2023/04/20 08:41:14;;;;;;;11.93;8.00;;;8.50;98.10;;;7.75;69.91;101440.88;5093503;28;20189;-74
2023/04/20 08:43:47;;;;;;;10.07;8.17;;;8.50;98.10;;;7.76;68.93;101443.44;5093691;28;20235;-74
2023/04/20 08:46:21;;;;;;;9.50;8.50;;;8.50;97.90;;;7.82;68.61;101431.41;5094058;28;20188;-66
2023/04/20 08:48:56;;;;;;;10.50;7.47;;;8.60;97.70;;;7.85;68.68;101431.16;5093566;28;20261;-75
2023/04/20 08:51:28;;;;;;;9.13;7.80;;;8.60;97.80;;;7.89;69.21;101440.59;5093966;28;20192;-75
2023/04/20 08:54:04;;;;;;;10.43;7.50;;;8.60;97.70;;;7.94;68.74;101439.25;5093968;28;20189;-75
2023/04/20 08:56:40;;;;;;;9.20;7.77;;;8.70;97.60;;;8.05;67.33;101430.34;5093933;28;20235;-75
2023/04/20 08:59:13;;;;;;;8.47;6.50;;;8.80;96.80;;;8.16;67.35;101419.63;5093325;28;20749;-75
2023/04/20 09:01:47;;;;;;;7.83;7.00;;;8.90;97.00;;;8.27;66.71;101432.94;5093824;28;20281;-75
2023/04/20 09:04:21;;;;;;;7.67;6.73;;;9.00;96.50;;;8.25;64.74;101421.56;5093683;28;20193;-75
2023/04/20 09:06:56;;;;;;;8.63;7.17;;;9.00;96.00;;;8.32;65.46;101428.06;5093453;28;20663;-75
2023/04/20 09:09:28;;;;;;;8.13;6.50;;;9.10;96.20;;;8.38;64.74;101427.59;5093959;28;20220;-75
2023/04/20 09:12:09;;;;;;;8.33;6.90;;;9.10;95.80;;;8.42;63.72;101431.69;5093754;28;20188;-76
2023/04/20 09:14:47;;;;;;;9.23;6.93;;;9.20;95.20;;;8.55;63.92;101427.00;5093363;28;20193;-75
2023/04/20 09:17:30;;;;;;;7.23;6.53;;;9.30;95.30;;;8.68;63.53;101431.28;5093638;28;20196;-75
2023/04/20 09:20:03;;;;;;;7.17;6.20;;;9.40;95.30;;;8.75;61.92;101429.78;5093408;28;20205;-74
2023/04/20 09:22:37;;;;;;;7.87;6.27;;;9.50;94.20;;;8.92;61.69;101434.50;5093480;28;20189;-75
2023/04/20 09:25:16;;;;;;;7.13;6.43;;;9.60;94.30;;;8.92;61.87;101430.00;5093805;28;20188;-75
2023/04/20 09:28:00;;;;;;;6.77;6.17;;;9.60;94.00;;;8.97;63.03;101435.78;5094084;28;20583;-73
2023/04/20 09:30:44;;;;;;;7.03;6.40;;;9.70;94.80;;;8.96;61.68;101433.25;5093451;28;20192;-73
2023/04/20 09:33:18;;;;;;;8.30;6.43;;;9.70;94.10;;;8.95;63.32;101434.25;5093817;28;20189;-73
2023/04/20 09:35:50;;;;;;;8.43;6.50;;;9.70;94.50;;;8.92;61.29;101431.84;5093304;28;20186;-73
2023/04/20 09:38:29;;;;;;;7.40;6.70;;;9.60;93.80;;;8.94;61.56;101437.88;5093597;28;20699;-73
2023/04/20 09:41:03;;;;;;;7.73;6.93;;;9.60;93.80;;;8.98;61.42;101439.31;5093292;28;20208;-74
2023/04/20 09:43:37;;;;;;;10.30;7.80;;;9.70;93.90;;;9.00;60.30;101432.03;5092952;28;20653;-73
2023/04/20 09:46:07;;;;;;;8.80;7.90;;;9.70;93.30;;;9.13;61.49;101432.66;5093265;28;20189;-74
2023/04/20 09:48:41;;;;;;;8.67;6.77;;;9.80;94.00;;;9.20;58.74;101427.59;5093224;28;20217;-74
2023/04/20 09:51:14;;;;;;;7.33;6.53;;;9.90;92.40;;;9.34;59.44;101425.41;5093646;28;20193;-74
2023/04/20 09:53:50;;;;;;;7.50;6.70;;;10.00;92.90;;;9.41;58.60;101437.25;5097224;28;20189;-74
2023/04/20 09:56:24;;;;;;;7.90;7.10;;;10.10;92.40;;;9.44;58.81;101433.47;5097180;28;20207;-74
2023/04/20 09:58:58;;;;;;;6.53;5.93;;;10.10;92.40;;;9.41;57.17;101437.25;5096716;28;20236;-74
2023/04/20 10:01:33;;;;;;;7.07;6.13;;;10.20;91.50;;;9.45;57.72;101443.19;5096830;28;20691;-74
2023/04/20 10:04:10;;;;;;;8.03;7.23;;;10.10;91.50;;;9.54;59.01;101428.97;5096757;28;20641;-74
2023/04/20 10:06:52;;;;;;;8.07;7.27;;;10.20;92.40;;;9.59;59.70;101427.59;5097036;28;20192;-74
2023/04/20 10:09:27;;;;;;;8.07;7.37;;;10.30;92.60;;;9.61;59.38;101433.66;5096922;28;20252;-74
2023/04/20 10:12:08;;;;;;;7.33;6.63;;;10.30;92.40;;;9.66;59.14;101447.44;5096915;28;20196;-74
2023/04/20 10:14:39;;;;;;;7.27;6.57;;;10.30;92.60;;;9.61;57.50;101439.00;5097182;28;20197;-74
2023/04/20 10:17:12;;;;;;;9.00;6.87;;;10.30;91.40;;;9.68;57.90;101440.16;5096407;28;20677;-74
2023/04/20 10:19:47;;;;;;;6.87;6.23;;;10.40;92.00;;;9.86;57.34;101432.28;5096686;28;20240;-74
2023/04/20 10:22:32;;;;;;;6.53;5.90;;;10.60;91.80;;;9.93;58.21;101438.75;5096714;28;20192;-74
2023/04/20 10:25:17;;;;;;;7.63;6.83;;;10.60;91.80;;;9.98;58.44;101444.53;5096367;28;20657;-74
2023/04/20 10:28:08;;;;;;;7.70;6.90;;;10.70;91.80;;;9.94;56.75;101439.59;5096210;28;20228;-74
2023/04/20 10:30:52;;;;;;;8.97;7.20;;;10.60;91.20;;;9.98;57.39;101433.84;5096571;28;20189;-74
2023/04/20 10:33:24;;;;;;;6.87;6.27;;;10.70;91.50;;;9.99;56.20;101432.03;5096543;28;20189;-74
2023/04/20 10:35:59;;;;;;;7.50;6.80;;;10.60;90.80;;;10.06;58.06;101422.44;5096452;28;20189;-74
2023/04/20 10:38:35;;;;;;;7.00;6.30;;;10.70;91.80;;;10.04;56.03;101417.22;5096354;28;20282;-74
2023/04/20 10:41:12;;;;;;;6.90;6.30;;;10.70;91.00;;;10.11;57.24;101425.53;5096315;28;20188;-74
2023/04/20 10:43:44;;;;;;;7.63;6.53;;;10.70;91.10;;;10.13;56.31;101419.06;5096323;28;20263;-74
2023/04/20 10:46:22;;;;;;;6.27;5.67;;;10.80;91.00;;;10.20;55.26;101416.72;5096202;28;20208;-74